sensor_id;sensor_type;location;lat;lon;timestamp;P1;durP1;ratioP1;P2;durP2;ratioP2
37715;SDS011;23562;50.540;12.504;2023-04-10T00:25:15;31.10;;;17.98;;
37715;SDS011;23562;50.540;12.504;2023-04-10T00:27:40;34.92;;;18.83;;
37715;SDS011;23562;50.540;12.504;2023-04-10T00:30:05;32.83;;;18.17;;
37715;SDS011;23562;50.540;12.504;2023-04-10T00:32:31;33.42;;;18.92;;
37715;SDS011;23562;50.540;12.504;2023-04-10T00:34:56;33.08;;;19.20;;
37715;SDS011;23562;50.540;12.504;2023-04-10T00:37:21;34.15;;;20.42;;
37715;SDS011;23562;50.540;12.504;2023-04-10T00:39:47;34.40;;;20.13;;
37715;SDS011;23562;50.540;12.504;2023-04-10T00:42:12;37.50;;;20.95;;
37715;SDS011;23562;50.540;12.504;2023-04-10T00:44:37;34.53;;;20.15;;
37715;SDS011;23562;50.540;12.504;2023-04-10T00:47:03;35.58;;;19.80;;
37715;SDS011;23562;50.540;12.504;2023-04-10T00:49:29;34.63;;;20.65;;
37715;SDS011;23562;50.540;12.504;2023-04-10T00:51:55;34.58;;;19.08;;
37715;SDS011;23562;50.540;12.504;2023-04-10T00:54:21;38.10;;;21.48;;
37715;SDS011;23562;50.540;12.504;2023-04-10T00:56:46;36.80;;;21.23;;
37715;SDS011;23562;50.540;12.504;2023-04-10T00:59:14;37.17;;;21.65;;
37715;SDS011;23562;50.540;12.504;2023-04-10T01:01:39;38.80;;;20.63;;
37715;SDS011;23562;50.540;12.504;2023-04-10T01:04:04;38.60;;;21.40;;
37715;SDS011;23562;50.540;12.504;2023-04-10T01:09:24;38.65;;;20.83;;
37715;SDS011;23562;50.540;12.504;2023-04-10T01:12:20;36.50;;;20.58;;
37715;SDS011;23562;50.540;12.504;2023-04-10T01:14:52;37.55;;;21.02;;
37715;SDS011;23562;50.540;12.504;2023-04-10T01:17:28;35.78;;;20.40;;
37715;SDS011;23562;50.540;12.504;2023-04-10T01:20:23;41.95;;;22.33;;
37715;SDS011;23562;50.540;12.504;2023-04-10T01:23:03;38.55;;;21.35;;
37715;SDS011;23562;50.540;12.504;2023-04-10T01:25:42;36.38;;;20.65;;
37715;SDS011;23562;50.540;12.504;2023-04-10T01:30:44;39.00;;;21.55;;
37715;SDS011;23562;50.540;12.504;2023-04-10T01:33:11;37.47;;;21.42;;
37715;SDS011;23562;50.540;12.504;2023-04-10T01:35:39;36.92;;;21.35;;
37715;SDS011;23562;50.540;12.504;2023-04-10T01:38:07;37.28;;;21.38;;
37715;SDS011;23562;50.540;12.504;2023-04-10T01:40:36;34.92;;;20.88;;
37715;SDS011;23562;50.540;12.504;2023-04-10T01:43:04;35.28;;;20.63;;
37715;SDS011;23562;50.540;12.504;2023-04-10T01:45:31;37.28;;;21.30;;
37715;SDS011;23562;50.540;12.504;2023-04-10T01:47:57;36.33;;;21.25;;
37715;SDS011;23562;50.540;12.504;2023-04-10T01:50:23;37.28;;;20.85;;
37715;SDS011;23562;50.540;12.504;2023-04-10T01:52:52;35.15;;;20.58;;
37715;SDS011;23562;50.540;12.504;2023-04-10T01:55:21;33.65;;;19.92;;
37715;SDS011;23562;50.540;12.504;2023-04-10T01:57:48;38.15;;;20.83;;
37715;SDS011;23562;50.540;12.504;2023-04-10T02:00:14;35.80;;;20.85;;
37715;SDS011;23562;50.540;12.504;2023-04-10T02:02:40;36.92;;;20.48;;
37715;SDS011;23562;50.540;12.504;2023-04-10T02:05:06;35.53;;;19.77;;
37715;SDS011;23562;50.540;12.504;2023-04-10T02:07:38;35.42;;;20.67;;
37715;SDS011;23562;50.540;12.504;2023-04-10T02:12:41;37.40;;;20.77;;
37715;SDS011;23562;50.540;12.504;2023-04-10T02:15:08;34.92;;;20.80;;
37715;SDS011;23562;50.540;12.504;2023-04-10T02:17:34;34.20;;;19.15;;
37715;SDS011;23562;50.540;12.504;2023-04-10T02:20:00;32.60;;;19.75;;
37715;SDS011;23562;50.540;12.504;2023-04-10T02:22:26;36.65;;;20.55;;
37715;SDS011;23562;50.540;12.504;2023-04-10T02:24:52;33.63;;;20.50;;
37715;SDS011;23562;50.540;12.504;2023-04-10T02:27:30;38.50;;;20.45;;
37715;SDS011;23562;50.540;12.504;2023-04-10T02:29:55;40.00;;;21.40;;
37715;SDS011;23562;50.540;12.504;2023-04-10T02:32:21;33.83;;;19.53;;
37715;SDS011;23562;50.540;12.504;2023-04-10T02:34:46;35.10;;;19.67;;
37715;SDS011;23562;50.540;12.504;2023-04-10T02:37:11;41.25;;;21.02;;
37715;SDS011;23562;50.540;12.504;2023-04-10T02:39:37;34.30;;;19.83;;
37715;SDS011;23562;50.540;12.504;2023-04-10T02:42:02;37.25;;;20.92;;
37715;SDS011;23562;50.540;12.504;2023-04-10T02:44:28;37.90;;;20.30;;
37715;SDS011;23562;50.540;12.504;2023-04-10T02:46:53;35.78;;;19.98;;
37715;SDS011;23562;50.540;12.504;2023-04-10T02:49:18;36.25;;;21.33;;
37715;SDS011;23562;50.540;12.504;2023-04-10T02:51:43;39.15;;;21.38;;
37715;SDS011;23562;50.540;12.504;2023-04-10T02:54:08;36.53;;;19.98;;
37715;SDS011;23562;50.540;12.504;2023-04-10T02:56:33;40.70;;;19.50;;
37715;SDS011;23562;50.540;12.504;2023-04-10T02:58:59;36.33;;;20.38;;
37715;SDS011;23562;50.540;12.504;2023-04-10T03:01:24;38.10;;;21.45;;
37715;SDS011;23562;50.540;12.504;2023-04-10T03:03:50;38.15;;;21.42;;
37715;SDS011;23562;50.540;12.504;2023-04-10T03:06:15;37.35;;;21.45;;
37715;SDS011;23562;50.540;12.504;2023-04-10T03:08:41;40.38;;;20.80;;
37715;SDS011;23562;50.540;12.504;2023-04-10T03:11:06;36.88;;;20.20;;
37715;SDS011;23562;50.540;12.504;2023-04-10T03:13:31;38.28;;;21.23;;
37715;SDS011;23562;50.540;12.504;2023-04-10T03:15:57;37.05;;;21.38;;
37715;SDS011;23562;50.540;12.504;2023-04-10T03:18:22;43.17;;;22.30;;
37715;SDS011;23562;50.540;12.504;2023-04-10T03:20:47;38.70;;;21.37;;
37715;SDS011;23562;50.540;12.504;2023-04-10T03:23:12;39.67;;;21.50;;
37715;SDS011;23562;50.540;12.504;2023-04-10T03:25:37;38.42;;;21.23;;
37715;SDS011;23562;50.540;12.504;2023-04-10T03:28:02;36.43;;;21.27;;
37715;SDS011;23562;50.540;12.504;2023-04-10T03:30:28;38.67;;;21.40;;
37715;SDS011;23562;50.540;12.504;2023-04-10T03:32:53;39.42;;;21.17;;
37715;SDS011;23562;50.540;12.504;2023-04-10T03:35:18;40.22;;;21.70;;
37715;SDS011;23562;50.540;12.504;2023-04-10T03:37:43;39.97;;;20.80;;
37715;SDS011;23562;50.540;12.504;2023-04-10T03:40:09;39.03;;;21.52;;
37715;SDS011;23562;50.540;12.504;2023-04-10T03:42:34;42.13;;;21.95;;
37715;SDS011;23562;50.540;12.504;2023-04-10T03:45:00;38.53;;;21.70;;
37715;SDS011;23562;50.540;12.504;2023-04-10T03:47:32;42.40;;;23.08;;
37715;SDS011;23562;50.540;12.504;2023-04-10T03:49:57;38.13;;;22.73;;
37715;SDS011;23562;50.540;12.504;2023-04-10T03:52:25;39.83;;;22.33;;
37715;SDS011;23562;50.540;12.504;2023-04-10T03:54:51;42.00;;;22.48;;
37715;SDS011;23562;50.540;12.504;2023-04-10T03:57:17;42.75;;;22.48;;
37715;SDS011;23562;50.540;12.504;2023-04-10T03:59:44;44.58;;;24.25;;
37715;SDS011;23562;50.540;12.504;2023-04-10T04:02:10;44.13;;;24.67;;
37715;SDS011;23562;50.540;12.504;2023-04-10T04:04:35;47.03;;;24.05;;
37715;SDS011;23562;50.540;12.504;2023-04-10T04:07:00;42.17;;;23.47;;
37715;SDS011;23562;50.540;12.504;2023-04-10T04:09:25;45.15;;;24.52;;
37715;SDS011;23562;50.540;12.504;2023-04-10T04:11:50;48.40;;;25.70;;
37715;SDS011;23562;50.540;12.504;2023-04-10T04:14:15;47.45;;;24.60;;
37715;SDS011;23562;50.540;12.504;2023-04-10T04:16:41;47.73;;;24.33;;
37715;SDS011;23562;50.540;12.504;2023-04-10T04:19:06;47.50;;;24.65;;
37715;SDS011;23562;50.540;12.504;2023-04-10T04:21:31;42.55;;;23.27;;
37715;SDS011;23562;50.540;12.504;2023-04-10T04:23:56;142.73;;;71.00;;
37715;SDS011;23562;50.540;12.504;2023-04-10T04:26:21;269.75;;;140.93;;
37715;SDS011;23562;50.540;12.504;2023-04-10T04:28:48;532.00;;;313.67;;
37715;SDS011;23562;50.540;12.504;2023-04-10T04:31:14;449.43;;;272.30;;
37715;SDS011;23562;50.540;12.504;2023-04-10T04:33:39;272.45;;;157.60;;
37715;SDS011;23562;50.540;12.504;2023-04-10T04:36:04;200.33;;;113.60;;
37715;SDS011;23562;50.540;12.504;2023-04-10T04:38:29;103.55;;;61.00;;
37715;SDS011;23562;50.540;12.504;2023-04-10T04:40:55;81.90;;;47.80;;
37715;SDS011;23562;50.540;12.504;2023-04-10T04:43:20;63.67;;;39.33;;
37715;SDS011;23562;50.540;12.504;2023-04-10T04:45:45;52.63;;;32.43;;
37715;SDS011;23562;50.540;12.504;2023-04-10T04:48:10;62.90;;;39.35;;
37715;SDS011;23562;50.540;12.504;2023-04-10T04:50:35;53.70;;;33.10;;
37715;SDS011;23562;50.540;12.504;2023-04-10T04:53:03;49.45;;;29.40;;
37715;SDS011;23562;50.540;12.504;2023-04-10T04:55:29;46.33;;;26.90;;
37715;SDS011;23562;50.540;12.504;2023-04-10T04:57:54;58.17;;;30.50;;
37715;SDS011;23562;50.540;12.504;2023-04-10T05:00:19;51.53;;;27.77;;
37715;SDS011;23562;50.540;12.504;2023-04-10T05:02:44;52.72;;;27.10;;
37715;SDS011;23562;50.540;12.504;2023-04-10T05:05:09;50.00;;;28.37;;
37715;SDS011;23562;50.540;12.504;2023-04-10T05:07:35;45.03;;;24.65;;
37715;SDS011;23562;50.540;12.504;2023-04-10T05:10:00;42.85;;;25.05;;
37715;SDS011;23562;50.540;12.504;2023-04-10T05:12:25;47.67;;;25.73;;
37715;SDS011;23562;50.540;12.504;2023-04-10T05:14:50;45.78;;;25.60;;
37715;SDS011;23562;50.540;12.504;2023-04-10T05:17:16;42.20;;;23.65;;
37715;SDS011;23562;50.540;12.504;2023-04-10T05:19:41;43.85;;;24.27;;
37715;SDS011;23562;50.540;12.504;2023-04-10T05:22:06;41.08;;;23.88;;
37715;SDS011;23562;50.540;12.504;2023-04-10T05:24:32;41.85;;;24.67;;
37715;SDS011;23562;50.540;12.504;2023-04-10T05:26:57;45.05;;;24.17;;
37715;SDS011;23562;50.540;12.504;2023-04-10T05:29:22;41.53;;;23.63;;
37715;SDS011;23562;50.540;12.504;2023-04-10T05:31:48;40.58;;;23.50;;
37715;SDS011;23562;50.540;12.504;2023-04-10T05:34:14;45.33;;;24.25;;
37715;SDS011;23562;50.540;12.504;2023-04-10T05:36:39;40.30;;;22.77;;
37715;SDS011;23562;50.540;12.504;2023-04-10T05:39:04;46.45;;;24.40;;
37715;SDS011;23562;50.540;12.504;2023-04-10T05:41:30;40.67;;;21.85;;
37715;SDS011;23562;50.540;12.504;2023-04-10T05:43:55;41.78;;;23.40;;
37715;SDS011;23562;50.540;12.504;2023-04-10T05:46:20;47.15;;;25.58;;
37715;SDS011;23562;50.540;12.504;2023-04-10T05:48:45;47.55;;;25.38;;
37715;SDS011;23562;50.540;12.504;2023-04-10T05:51:11;45.08;;;24.67;;
37715;SDS011;23562;50.540;12.504;2023-04-10T05:53:36;43.78;;;25.63;;
37715;SDS011;23562;50.540;12.504;2023-04-10T05:56:01;43.20;;;23.63;;
37715;SDS011;23562;50.540;12.504;2023-04-10T05:58:27;39.80;;;22.33;;
37715;SDS011;23562;50.540;12.504;2023-04-10T06:00:53;37.95;;;21.60;;
37715;SDS011;23562;50.540;12.504;2023-04-10T06:03:20;40.03;;;21.80;;
37715;SDS011;23562;50.540;12.504;2023-04-10T06:05:45;34.67;;;19.75;;
37715;SDS011;23562;50.540;12.504;2023-04-10T06:08:10;34.58;;;20.45;;
37715;SDS011;23562;50.540;12.504;2023-04-10T06:10:36;39.33;;;22.08;;
37715;SDS011;23562;50.540;12.504;2023-04-10T06:13:01;39.03;;;22.08;;
37715;SDS011;23562;50.540;12.504;2023-04-10T06:15:27;35.33;;;20.92;;
37715;SDS011;23562;50.540;12.504;2023-04-10T06:17:53;40.67;;;22.20;;
37715;SDS011;23562;50.540;12.504;2023-04-10T06:20:18;39.58;;;22.08;;
37715;SDS011;23562;50.540;12.504;2023-04-10T06:22:43;43.53;;;24.08;;
37715;SDS011;23562;50.540;12.504;2023-04-10T06:25:13;45.53;;;25.33;;
37715;SDS011;23562;50.540;12.504;2023-04-10T06:27:38;46.65;;;25.08;;
37715;SDS011;23562;50.540;12.504;2023-04-10T06:30:03;44.80;;;24.05;;
37715;SDS011;23562;50.540;12.504;2023-04-10T06:32:29;42.15;;;23.50;;
37715;SDS011;23562;50.540;12.504;2023-04-10T06:34:55;43.30;;;24.83;;
37715;SDS011;23562;50.540;12.504;2023-04-10T06:37:26;42.85;;;23.25;;
37715;SDS011;23562;50.540;12.504;2023-04-10T06:40:05;39.00;;;22.30;;
37715;SDS011;23562;50.540;12.504;2023-04-10T06:42:35;40.08;;;22.85;;
37715;SDS011;23562;50.540;12.504;2023-04-10T06:45:01;37.30;;;22.15;;
37715;SDS011;23562;50.540;12.504;2023-04-10T06:47:27;36.13;;;20.83;;
37715;SDS011;23562;50.540;12.504;2023-04-10T06:49:52;38.05;;;22.73;;
37715;SDS011;23562;50.540;12.504;2023-04-10T06:52:18;40.30;;;22.48;;
37715;SDS011;23562;50.540;12.504;2023-04-10T06:54:43;36.63;;;20.92;;
37715;SDS011;23562;50.540;12.504;2023-04-10T06:57:08;35.97;;;21.88;;
37715;SDS011;23562;50.540;12.504;2023-04-10T06:59:34;38.30;;;22.00;;
37715;SDS011;23562;50.540;12.504;2023-04-10T07:01:59;41.05;;;24.27;;
37715;SDS011;23562;50.540;12.504;2023-04-10T07:04:26;38.67;;;22.75;;
37715;SDS011;23562;50.540;12.504;2023-04-10T07:06:51;38.38;;;22.70;;
37715;SDS011;23562;50.540;12.504;2023-04-10T07:09:17;37.30;;;22.65;;
37715;SDS011;23562;50.540;12.504;2023-04-10T07:11:42;41.80;;;23.40;;
37715;SDS011;23562;50.540;12.504;2023-04-10T07:14:07;41.65;;;23.00;;
37715;SDS011;23562;50.540;12.504;2023-04-10T07:16:32;39.40;;;22.73;;
37715;SDS011;23562;50.540;12.504;2023-04-10T07:18:58;41.58;;;24.33;;
37715;SDS011;23562;50.540;12.504;2023-04-10T07:21:23;36.55;;;22.02;;
37715;SDS011;23562;50.540;12.504;2023-04-10T07:23:48;39.75;;;22.92;;
37715;SDS011;23562;50.540;12.504;2023-04-10T07:26:14;36.55;;;21.70;;
37715;SDS011;23562;50.540;12.504;2023-04-10T07:28:39;35.40;;;20.08;;
37715;SDS011;23562;50.540;12.504;2023-04-10T07:31:04;34.05;;;20.08;;
37715;SDS011;23562;50.540;12.504;2023-04-10T07:33:31;29.20;;;18.10;;
37715;SDS011;23562;50.540;12.504;2023-04-10T07:35:57;29.98;;;17.98;;
37715;SDS011;23562;50.540;12.504;2023-04-10T07:38:22;29.42;;;17.85;;
37715;SDS011;23562;50.540;12.504;2023-04-10T07:40:48;29.95;;;17.45;;
37715;SDS011;23562;50.540;12.504;2023-04-10T07:43:13;29.33;;;16.73;;
37715;SDS011;23562;50.540;12.504;2023-04-10T07:45:39;34.53;;;18.75;;
37715;SDS011;23562;50.540;12.504;2023-04-10T07:48:08;27.15;;;16.88;;
37715;SDS011;23562;50.540;12.504;2023-04-10T07:50:33;30.95;;;18.45;;
37715;SDS011;23562;50.540;12.504;2023-04-10T07:53:00;26.65;;;16.23;;
37715;SDS011;23562;50.540;12.504;2023-04-10T07:55:27;35.97;;;20.15;;
37715;SDS011;23562;50.540;12.504;2023-04-10T07:57:52;36.53;;;19.38;;
37715;SDS011;23562;50.540;12.504;2023-04-10T08:00:18;25.98;;;16.63;;
37715;SDS011;23562;50.540;12.504;2023-04-10T08:02:43;24.48;;;15.85;;
37715;SDS011;23562;50.540;12.504;2023-04-10T08:05:08;168.40;;;84.53;;
37715;SDS011;23562;50.540;12.504;2023-04-10T08:07:33;40.00;;;23.85;;
37715;SDS011;23562;50.540;12.504;2023-04-10T08:10:00;19.60;;;12.65;;
37715;SDS011;23562;50.540;12.504;2023-04-10T08:12:25;22.15;;;15.25;;
37715;SDS011;23562;50.540;12.504;2023-04-10T08:14:50;24.43;;;15.70;;
37715;SDS011;23562;50.540;12.504;2023-04-10T08:17:15;17.37;;;11.13;;
37715;SDS011;23562;50.540;12.504;2023-04-10T08:19:41;32.77;;;21.97;;
37715;SDS011;23562;50.540;12.504;2023-04-10T08:22:06;20.27;;;13.50;;
37715;SDS011;23562;50.540;12.504;2023-04-10T08:24:31;20.63;;;12.43;;
37715;SDS011;23562;50.540;12.504;2023-04-10T08:26:56;18.65;;;13.38;;
37715;SDS011;23562;50.540;12.504;2023-04-10T08:29:21;19.38;;;12.10;;
37715;SDS011;23562;50.540;12.504;2023-04-10T08:31:47;20.10;;;12.50;;
37715;SDS011;23562;50.540;12.504;2023-04-10T08:34:12;16.77;;;10.97;;
37715;SDS011;23562;50.540;12.504;2023-04-10T08:36:37;15.27;;;11.20;;
37715;SDS011;23562;50.540;12.504;2023-04-10T08:39:02;15.25;;;10.55;;
37715;SDS011;23562;50.540;12.504;2023-04-10T08:41:27;16.75;;;11.18;;
37715;SDS011;23562;50.540;12.504;2023-04-10T08:43:52;16.83;;;11.43;;
37715;SDS011;23562;50.540;12.504;2023-04-10T08:46:17;17.85;;;11.02;;
37715;SDS011;23562;50.540;12.504;2023-04-10T08:48:45;15.95;;;11.00;;
37715;SDS011;23562;50.540;12.504;2023-04-10T08:51:18;14.25;;;9.85;;
37715;SDS011;23562;50.540;12.504;2023-04-10T08:53:44;17.02;;;11.00;;
37715;SDS011;23562;50.540;12.504;2023-04-10T08:56:13;20.02;;;10.68;;
37715;SDS011;23562;50.540;12.504;2023-04-10T08:58:40;17.80;;;11.57;;
37715;SDS011;23562;50.540;12.504;2023-04-10T09:01:06;18.00;;;11.75;;
37715;SDS011;23562;50.540;12.504;2023-04-10T09:03:32;19.80;;;12.32;;
37715;SDS011;23562;50.540;12.504;2023-04-10T09:05:59;17.20;;;11.37;;
37715;SDS011;23562;50.540;12.504;2023-04-10T09:08:25;16.08;;;11.05;;
37715;SDS011;23562;50.540;12.504;2023-04-10T09:10:51;16.47;;;11.90;;
37715;SDS011;23562;50.540;12.504;2023-04-10T09:13:26;17.77;;;11.00;;
37715;SDS011;23562;50.540;12.504;2023-04-10T09:15:58;17.02;;;11.95;;
37715;SDS011;23562;50.540;12.504;2023-04-10T09:18:39;17.80;;;12.02;;
37715;SDS011;23562;50.540;12.504;2023-04-10T09:21:08;16.00;;;11.10;;
37715;SDS011;23562;50.540;12.504;2023-04-10T09:23:33;22.25;;;11.85;;
37715;SDS011;23562;50.540;12.504;2023-04-10T09:25:58;17.98;;;12.38;;
37715;SDS011;23562;50.540;12.504;2023-04-10T09:28:23;16.15;;;11.38;;
37715;SDS011;23562;50.540;12.504;2023-04-10T09:30:48;18.63;;;12.47;;
37715;SDS011;23562;50.540;12.504;2023-04-10T09:33:23;15.80;;;11.38;;
37715;SDS011;23562;50.540;12.504;2023-04-10T09:35:55;16.80;;;11.65;;
37715;SDS011;23562;50.540;12.504;2023-04-10T09:38:21;18.17;;;10.73;;
37715;SDS011;23562;50.540;12.504;2023-04-10T09:40:47;15.60;;;11.30;;
37715;SDS011;23562;50.540;12.504;2023-04-10T09:43:16;15.57;;;11.23;;
37715;SDS011;23562;50.540;12.504;2023-04-10T09:45:48;17.30;;;11.43;;
37715;SDS011;23562;50.540;12.504;2023-04-10T09:48:14;13.73;;;9.93;;
37715;SDS011;23562;50.540;12.504;2023-04-10T09:50:39;15.63;;;10.25;;
37715;SDS011;23562;50.540;12.504;2023-04-10T09:53:05;13.93;;;10.27;;
37715;SDS011;23562;50.540;12.504;2023-04-10T09:55:30;15.43;;;10.68;;
37715;SDS011;23562;50.540;12.504;2023-04-10T09:57:56;16.08;;;10.73;;
37715;SDS011;23562;50.540;12.504;2023-04-10T10:00:22;13.02;;;9.65;;
37715;SDS011;23562;50.540;12.504;2023-04-10T10:02:48;14.73;;;9.82;;
37715;SDS011;23562;50.540;12.504;2023-04-10T10:05:13;14.18;;;10.02;;
37715;SDS011;23562;50.540;12.504;2023-04-10T10:07:39;14.50;;;10.05;;
37715;SDS011;23562;50.540;12.504;2023-04-10T10:10:05;13.32;;;9.32;;
37715;SDS011;23562;50.540;12.504;2023-04-10T10:12:35;13.18;;;9.40;;
37715;SDS011;23562;50.540;12.504;2023-04-10T10:17:31;15.45;;;11.05;;
37715;SDS011;23562;50.540;12.504;2023-04-10T10:20:03;14.40;;;10.30;;
37715;SDS011;23562;50.540;12.504;2023-04-10T10:22:29;12.90;;;9.65;;
37715;SDS011;23562;50.540;12.504;2023-04-10T10:25:05;14.35;;;9.68;;
37715;SDS011;23562;50.540;12.504;2023-04-10T10:27:35;15.90;;;10.52;;
37715;SDS011;23562;50.540;12.504;2023-04-10T10:30:00;12.95;;;9.55;;
37715;SDS011;23562;50.540;12.504;2023-04-10T10:32:28;11.80;;;9.02;;
37715;SDS011;23562;50.540;12.504;2023-04-10T10:34:54;13.07;;;9.57;;
37715;SDS011;23562;50.540;12.504;2023-04-10T10:37:20;14.10;;;10.18;;
37715;SDS011;23562;50.540;12.504;2023-04-10T10:39:52;12.82;;;9.20;;
37715;SDS011;23562;50.540;12.504;2023-04-10T10:45:23;14.05;;;8.63;;
37715;SDS011;23562;50.540;12.504;2023-04-10T10:47:53;13.57;;;9.00;;
37715;SDS011;23562;50.540;12.504;2023-04-10T10:50:18;14.05;;;9.23;;
37715;SDS011;23562;50.540;12.504;2023-04-10T10:52:44;13.50;;;8.60;;
37715;SDS011;23562;50.540;12.504;2023-04-10T10:58:01;18.02;;;11.23;;
37715;SDS011;23562;50.540;12.504;2023-04-10T11:05:52;10.88;;;8.48;;
37715;SDS011;23562;50.540;12.504;2023-04-10T11:08:40;11.75;;;8.57;;
37715;SDS011;23562;50.540;12.504;2023-04-10T11:11:13;15.23;;;9.23;;
37715;SDS011;23562;50.540;12.504;2023-04-10T11:16:18;14.30;;;8.85;;
37715;SDS011;23562;50.540;12.504;2023-04-10T11:21:29;13.82;;;9.38;;
37715;SDS011;23562;50.540;12.504;2023-04-10T11:29:03;12.00;;;9.43;;
37715;SDS011;23562;50.540;12.504;2023-04-10T11:31:28;9.43;;;7.80;;
37715;SDS011;23562;50.540;12.504;2023-04-10T11:34:04;11.00;;;8.13;;
37715;SDS011;23562;50.540;12.504;2023-04-10T11:36:30;13.00;;;8.98;;
37715;SDS011;23562;50.540;12.504;2023-04-10T11:38:59;13.18;;;9.10;;
37715;SDS011;23562;50.540;12.504;2023-04-10T11:41:27;10.48;;;8.20;;
37715;SDS011;23562;50.540;12.504;2023-04-10T11:43:52;11.55;;;8.18;;
37715;SDS011;23562;50.540;12.504;2023-04-10T11:46:18;11.88;;;8.32;;
37715;SDS011;23562;50.540;12.504;2023-04-10T11:48:43;11.82;;;7.90;;
37715;SDS011;23562;50.540;12.504;2023-04-10T11:51:10;10.27;;;7.28;;
37715;SDS011;23562;50.540;12.504;2023-04-10T11:53:36;9.93;;;7.10;;
37715;SDS011;23562;50.540;12.504;2023-04-10T11:56:01;10.63;;;7.65;;
37715;SDS011;23562;50.540;12.504;2023-04-10T11:58:27;9.38;;;7.22;;
37715;SDS011;23562;50.540;12.504;2023-04-10T12:00:57;11.75;;;7.53;;
37715;SDS011;23562;50.540;12.504;2023-04-10T12:03:30;10.52;;;7.63;;
37715;SDS011;23562;50.540;12.504;2023-04-10T12:05:55;16.98;;;10.48;;
37715;SDS011;23562;50.540;12.504;2023-04-10T12:08:20;10.95;;;8.55;;
37715;SDS011;23562;50.540;12.504;2023-04-10T12:10:45;13.40;;;7.38;;
37715;SDS011;23562;50.540;12.504;2023-04-10T12:13:27;10.23;;;7.72;;
37715;SDS011;23562;50.540;12.504;2023-04-10T12:15:52;10.80;;;7.03;;
37715;SDS011;23562;50.540;12.504;2023-04-10T12:18:18;11.05;;;8.48;;
37715;SDS011;23562;50.540;12.504;2023-04-10T12:20:43;9.80;;;7.35;;
37715;SDS011;23562;50.540;12.504;2023-04-10T12:23:08;10.38;;;7.45;;
37715;SDS011;23562;50.540;12.504;2023-04-10T12:25:34;9.23;;;7.38;;
37715;SDS011;23562;50.540;12.504;2023-04-10T12:27:59;9.73;;;7.05;;
37715;SDS011;23562;50.540;12.504;2023-04-10T12:30:24;10.70;;;7.37;;
37715;SDS011;23562;50.540;12.504;2023-04-10T12:32:50;10.18;;;7.30;;
37715;SDS011;23562;50.540;12.504;2023-04-10T12:35:18;9.80;;;7.10;;
37715;SDS011;23562;50.540;12.504;2023-04-10T12:37:47;9.05;;;6.75;;
37715;SDS011;23562;50.540;12.504;2023-04-10T12:40:13;8.70;;;7.00;;
37715;SDS011;23562;50.540;12.504;2023-04-10T12:42:39;8.57;;;7.00;;
37715;SDS011;23562;50.540;12.504;2023-04-10T12:45:05;11.20;;;6.88;;
37715;SDS011;23562;50.540;12.504;2023-04-10T12:47:33;9.68;;;6.95;;
37715;SDS011;23562;50.540;12.504;2023-04-10T12:50:07;8.73;;;6.70;;
37715;SDS011;23562;50.540;12.504;2023-04-10T12:52:34;8.93;;;7.10;;
37715;SDS011;23562;50.540;12.504;2023-04-10T12:55:09;8.10;;;6.90;;
37715;SDS011;23562;50.540;12.504;2023-04-10T12:57:35;9.02;;;6.22;;
37715;SDS011;23562;50.540;12.504;2023-04-10T13:00:01;8.87;;;6.73;;
37715;SDS011;23562;50.540;12.504;2023-04-10T13:02:27;14.68;;;10.18;;
37715;SDS011;23562;50.540;12.504;2023-04-10T13:04:53;12.65;;;8.27;;
37715;SDS011;23562;50.540;12.504;2023-04-10T13:07:18;10.43;;;8.80;;
37715;SDS011;23562;50.540;12.504;2023-04-10T13:09:43;12.05;;;9.20;;
37715;SDS011;23562;50.540;12.504;2023-04-10T13:12:08;11.80;;;8.97;;
37715;SDS011;23562;50.540;12.504;2023-04-10T13:14:33;7.88;;;6.32;;
37715;SDS011;23562;50.540;12.504;2023-04-10T13:16:59;8.35;;;6.82;;
37715;SDS011;23562;50.540;12.504;2023-04-10T13:19:24;8.50;;;6.63;;
37715;SDS011;23562;50.540;12.504;2023-04-10T13:21:49;7.75;;;6.00;;
37715;SDS011;23562;50.540;12.504;2023-04-10T13:24:15;15.00;;;9.43;;
37715;SDS011;23562;50.540;12.504;2023-04-10T13:26:40;20.27;;;12.93;;
37715;SDS011;23562;50.540;12.504;2023-04-10T13:29:06;55.33;;;28.67;;
37715;SDS011;23562;50.540;12.504;2023-04-10T13:31:31;56.08;;;34.78;;
37715;SDS011;23562;50.540;12.504;2023-04-10T13:33:56;22.95;;;15.13;;
37715;SDS011;23562;50.540;12.504;2023-04-10T13:36:21;15.27;;;10.57;;
37715;SDS011;23562;50.540;12.504;2023-04-10T13:38:46;8.43;;;6.77;;
37715;SDS011;23562;50.540;12.504;2023-04-10T13:41:11;8.05;;;6.82;;
37715;SDS011;23562;50.540;12.504;2023-04-10T13:43:36;7.88;;;6.10;;
37715;SDS011;23562;50.540;12.504;2023-04-10T13:46:02;8.33;;;7.43;;
37715;SDS011;23562;50.540;12.504;2023-04-10T13:48:27;8.70;;;7.07;;
37715;SDS011;23562;50.540;12.504;2023-04-10T13:50:52;9.35;;;6.45;;
37715;SDS011;23562;50.540;12.504;2023-04-10T13:53:17;6.78;;;5.78;;
37715;SDS011;23562;50.540;12.504;2023-04-10T13:55:43;10.55;;;7.60;;
37715;SDS011;23562;50.540;12.504;2023-04-10T13:58:09;8.77;;;6.32;;
37715;SDS011;23562;50.540;12.504;2023-04-10T14:00:35;7.78;;;5.90;;
37715;SDS011;23562;50.540;12.504;2023-04-10T14:03:01;8.43;;;6.32;;
37715;SDS011;23562;50.540;12.504;2023-04-10T14:05:39;7.78;;;6.57;;
37715;SDS011;23562;50.540;12.504;2023-04-10T14:08:04;9.27;;;6.10;;
37715;SDS011;23562;50.540;12.504;2023-04-10T14:10:29;10.60;;;6.30;;
37715;SDS011;23562;50.540;12.504;2023-04-10T14:12:55;8.90;;;6.82;;
37715;SDS011;23562;50.540;12.504;2023-04-10T14:15:20;6.27;;;5.67;;
37715;SDS011;23562;50.540;12.504;2023-04-10T14:17:49;6.33;;;5.37;;
37715;SDS011;23562;50.540;12.504;2023-04-10T14:23:17;6.53;;;5.45;;
37715;SDS011;23562;50.540;12.504;2023-04-10T14:25:45;7.20;;;5.60;;
37715;SDS011;23562;50.540;12.504;2023-04-10T14:28:11;8.68;;;6.15;;
37715;SDS011;23562;50.540;12.504;2023-04-10T14:30:45;10.02;;;6.20;;
37715;SDS011;23562;50.540;12.504;2023-04-10T14:33:12;7.95;;;6.10;;
37715;SDS011;23562;50.540;12.504;2023-04-10T14:35:37;8.15;;;5.75;;
37715;SDS011;23562;50.540;12.504;2023-04-10T14:38:02;6.75;;;5.45;;
37715;SDS011;23562;50.540;12.504;2023-04-10T14:40:27;7.72;;;6.07;;
37715;SDS011;23562;50.540;12.504;2023-04-10T14:42:52;8.98;;;6.15;;
37715;SDS011;23562;50.540;12.504;2023-04-10T14:45:18;7.83;;;6.20;;
37715;SDS011;23562;50.540;12.504;2023-04-10T14:47:43;7.68;;;6.40;;
37715;SDS011;23562;50.540;12.504;2023-04-10T14:50:09;8.32;;;6.32;;
37715;SDS011;23562;50.540;12.504;2023-04-10T14:52:34;10.98;;;5.68;;
37715;SDS011;23562;50.540;12.504;2023-04-10T14:54:59;7.00;;;5.93;;
37715;SDS011;23562;50.540;12.504;2023-04-10T14:57:24;8.90;;;6.17;;
37715;SDS011;23562;50.540;12.504;2023-04-10T14:59:49;9.82;;;6.53;;
37715;SDS011;23562;50.540;12.504;2023-04-10T15:02:15;8.18;;;5.88;;
37715;SDS011;23562;50.540;12.504;2023-04-10T15:04:40;9.02;;;6.60;;
37715;SDS011;23562;50.540;12.504;2023-04-10T15:07:05;8.80;;;6.45;;
37715;SDS011;23562;50.540;12.504;2023-04-10T15:09:30;8.80;;;6.38;;